Time,TemperatureF,DewpointF,PressureIn,WindDirection,WindDirectionDegrees,WindSpeedMPH,WindSpeedGustMPH,Humidity,HourlyPrecipIn,Conditions,Clouds,dailyrainin,SoftwareType,DateUTC
2014-02-11 00:22:00,25.0,11.0,30.38,NW,314,5.0,6.0,54,0.00,,,-99.99,,2014-02-11 05:22:00,
2014-02-11 00:43:00,25.0,11.0,30.39,NW,318,5.0,7.0,55,0.00,,,-99.99,,2014-02-11 05:43:00,
2014-02-11 00:53:00,25.0,11.0,30.39,NW,318,5.0,7.0,55,0.00,,,-99.99,,2014-02-11 05:53:00,
2014-02-11 01:50:00,24.0,15.0,30.38,NW,311,3.0,5.0,68,0.00,,,-99.99,,2014-02-11 06:50:00,
2014-02-11 01:52:00,24.0,12.0,30.37,NW,320,6.0,7.0,60,0.00,,,-99.99,,2014-02-11 06:52:00,
2014-02-11 02:02:00,24.0,12.0,30.37,NW,320,6.0,7.0,60,0.00,,,-99.99,,2014-02-11 07:02:00,
2014-02-11 02:22:00,24.0,15.0,30.38,NW,311,3.0,5.0,68,0.00,,,-99.99,,2014-02-11 07:22:00,
2014-02-11 02:32:00,24.0,15.0,30.38,NW,311,3.0,5.0,68,0.00,,,-99.99,,2014-02-11 07:32:00,
2014-02-11 02:42:00,24.0,15.0,30.38,NW,311,3.0,5.0,68,0.00,,,-99.99,,2014-02-11 07:42:00,
2014-02-11 04:53:00,22.0,14.0,30.40,WNW,303,6.0,8.0,71,0.00,,,-99.99,,2014-02-11 09:53:00,
2014-02-11 05:04:00,22.0,14.0,30.40,WNW,303,6.0,8.0,71,0.00,,,-99.99,,2014-02-11 10:04:00,
2014-02-11 05:23:00,22.0,15.0,30.40,WNW,290,7.0,9.0,73,0.00,,,-99.99,,2014-02-11 10:23:00,
2014-02-11 05:33:00,22.0,15.0,30.40,WNW,290,7.0,9.0,73,0.00,,,-99.99,,2014-02-11 10:33:00,
2014-02-11 05:43:00,22.0,15.0,30.40,WNW,290,7.0,9.0,73,0.00,,,-99.99,,2014-02-11 10:43:00,
2014-02-11 05:53:00,22.0,15.0,30.40,WNW,290,7.0,9.0,73,0.00,,,-99.99,,2014-02-11 10:53:00,
2014-02-11 06:53:00,21.0,14.0,30.42,NW,311,6.0,7.0,74,0.00,,,-99.99,,2014-02-11 11:53:00,
2014-02-11 07:02:00,21.0,14.0,30.42,NW,311,6.0,7.0,74,0.00,,,-99.99,,2014-02-11 12:02:00,
2014-02-11 07:22:00,21.0,15.0,30.42,NW,310,5.0,7.0,76,0.00,,,-99.99,,2014-02-11 12:22:00,
2014-02-11 07:32:00,21.0,15.0,30.42,NW,310,5.0,7.0,76,0.00,,,-99.99,,2014-02-11 12:32:00,
2014-02-11 07:42:00,21.0,15.0,30.42,NW,310,5.0,7.0,76,0.00,,,-99.99,,2014-02-11 12:42:00,
2014-02-11 07:52:00,21.0,15.0,30.42,NW,310,5.0,7.0,76,0.00,,,-99.99,,2014-02-11 12:52:00,
2014-02-11 08:42:00,23.0,14.0,30.47,NNW,333,8.0,11.0,67,0.00,,,-99.99,,2014-02-11 13:42:00,
2014-02-11 08:52:00,24.0,12.0,30.47,NNW,347,12.0,17.0,60,0.00,,,-99.99,,2014-02-11 13:52:00,
2014-02-11 09:02:00,24.0,12.0,30.47,NNW,347,12.0,17.0,60,0.00,,,-99.99,,2014-02-11 14:02:00,
2014-02-11 10:22:00,24.0,11.0,30.47,North,356,15.0,17.0,58,0.00,,,-99.99,,2014-02-11 15:22:00,
2014-02-11 10:53:00,25.0,9.0,30.47,NNW,343,10.0,12.0,51,0.00,,,-99.99,,2014-02-11 15:53:00,
2014-02-11 11:20:00,25.0,9.0,30.48,NW,311,13.0,16.0,51,0.00,,,-99.99,,2014-02-11 16:20:00,
2014-02-11 11:23:00,26.0,9.0,30.49,NNW,330,9.0,11.0,49,0.00,,,-99.99,,2014-02-11 16:23:00,
2014-02-11 11:53:00,25.0,9.0,30.48,NW,311,13.0,16.0,51,0.00,,,-99.99,,2014-02-11 16:53:00,
2014-02-11 12:02:00,25.0,9.0,30.48,NW,311,13.0,16.0,51,0.00,,,-99.99,,2014-02-11 17:02:00,
2014-02-11 12:12:00,25.0,9.0,30.48,NW,311,13.0,16.0,51,0.00,,,-99.99,,2014-02-11 17:12:00,
2014-02-11 12:42:00,25.0,8.0,30.44,NW,313,11.0,14.0,48,0.00,,,-99.99,,2014-02-11 17:42:00,
2014-02-11 13:12:00,26.0,9.0,30.46,NW,313,10.0,15.0,48,0.00,,,-99.99,,2014-02-11 18:12:00,
2014-02-11 13:22:00,26.0,9.0,30.46,NW,313,10.0,15.0,48,0.00,,,-99.99,,2014-02-11 18:22:00,
2014-02-11 13:32:00,26.0,9.0,30.46,NW,313,10.0,15.0,48,0.00,,,-99.99,,2014-02-11 18:32:00,
2014-02-11 13:53:00,27.0,9.0,30.45,NW,324,9.0,12.0,45,0.00,,,-99.99,,2014-02-11 18:53:00,
2014-02-11 14:02:00,27.0,9.0,30.45,NW,324,9.0,12.0,45,0.00,,,-99.99,,2014-02-11 19:02:00,
2014-02-11 14:22:00,27.0,8.0,30.43,NW,322,8.0,11.0,44,0.00,,,-99.99,,2014-02-11 19:22:00,
2014-02-11 14:32:00,27.0,8.0,30.43,NW,322,8.0,11.0,44,0.00,,,-99.99,,2014-02-11 19:32:00,
2014-02-11 14:42:00,27.0,8.0,30.43,NW,322,8.0,11.0,44,0.00,,,-99.99,,2014-02-11 19:42:00,
2014-02-11 15:22:00,27.0,10.0,30.43,NNW,334,9.0,11.0,48,0.00,,,-99.99,,2014-02-11 20:22:00,
2014-02-11 15:42:00,28.0,9.0,30.44,NW,322,9.0,12.0,44,0.00,,,-99.99,,2014-02-11 20:42:00,
2014-02-11 15:52:00,28.0,9.0,30.44,NW,322,9.0,12.0,44,0.00,,,-99.99,,2014-02-11 20:52:00,
2014-02-11 16:02:00,28.0,9.0,30.44,NW,322,9.0,12.0,44,0.00,,,-99.99,,2014-02-11 21:02:00,
2014-02-11 16:12:00,28.0,9.0,30.44,NW,322,9.0,12.0,44,0.00,,,-99.99,,2014-02-11 21:12:00,
2014-02-11 16:54:00,28.0,10.0,30.43,NW,310,6.0,9.0,46,0.00,,,-99.99,,2014-02-11 21:54:00,
2014-02-11 17:52:00,26.0,11.0,30.44,NW,322,6.0,8.0,53,0.00,,,-99.99,,2014-02-11 22:52:00,
2014-02-11 18:02:00,26.0,11.0,30.44,NW,322,6.0,8.0,53,0.00,,,-99.99,,2014-02-11 23:02:00,
2014-02-11 18:20:00,26.0,12.0,30.46,NW,312,7.0,10.0,55,0.00,,,-99.99,,2014-02-11 23:20:00,
2014-02-11 18:53:00,26.0,12.0,30.46,NW,312,7.0,10.0,55,0.00,,,-99.99,,2014-02-11 23:53:00,
2014-02-11 19:02:00,26.0,12.0,30.46,NW,312,7.0,10.0,55,0.00,,,-99.99,,2014-02-12 00:02:00,
2014-02-11 19:12:00,26.0,12.0,30.46,NW,312,7.0,10.0,55,0.00,,,-99.99,,2014-02-12 00:12:00,
2014-02-11 20:22:00,26.0,10.0,30.47,NW,308,11.0,13.0,52,0.00,,,-99.99,,2014-02-12 01:22:00,
2014-02-11 20:32:00,26.0,10.0,30.47,NW,308,11.0,13.0,52,0.00,,,-99.99,,2014-02-12 01:32:00,
2014-02-11 20:52:00,25.0,10.0,30.49,NW,313,9.0,13.0,52,0.00,,,-99.99,,2014-02-12 01:52:00,
2014-02-11 21:02:00,25.0,10.0,30.49,NW,313,9.0,13.0,52,0.00,,,-99.99,,2014-02-12 02:02:00,
2014-02-11 21:22:00,25.0,9.0,30.49,NW,318,10.0,12.0,51,0.00,,,-99.99,,2014-02-12 02:22:00,
2014-02-11 21:32:00,25.0,9.0,30.49,NW,318,10.0,12.0,51,0.00,,,-99.99,,2014-02-12 02:32:00,
2014-02-11 21:42:00,25.0,9.0,30.49,NW,318,10.0,12.0,51,0.00,,,-99.99,,2014-02-12 02:42:00,
2014-02-11 22:12:00,24.0,10.0,30.50,NNW,332,9.0,12.0,54,0.00,,,-99.99,,2014-02-12 03:12:00,
2014-02-11 22:22:00,24.0,10.0,30.50,NNW,332,9.0,12.0,54,0.00,,,-99.99,,2014-02-12 03:22:00,
2014-02-11 22:34:00,24.0,10.0,30.50,NNW,332,9.0,12.0,54,0.00,,,-99.99,,2014-02-12 03:34:00,
2014-02-11 23:13:00,24.0,7.0,30.51,NNW,331,10.0,13.0,48,0.00,,,-99.99,,2014-02-12 04:13:00,
2014-02-11 23:43:00,24.0,8.0,30.52,NNW,328,9.0,12.0,49,0.00,,,-99.99,,2014-02-12 04:43:00,
2014-02-11 23:53:00,24.0,7.0,30.53,NNW,332,10.0,13.0,48,0.00,,,-99.99,,2014-02-12 04:53:00,